Time;durP1;ratioP1;P1;durP2;ratioP2;P2;SDS_P1;SDS_P2;PMS_P1;PMS_P2;Temp;Humidity;BMP_temperature;BMP_pressure;BME280_temperature;BME280_humidity;BME280_pressure;Samples;Min_cycle;Max_cycle;Signal;HPM_P1;HPM_P2
2024/01/24 00:02:18;;;;;;;1.88;1.45;;;9.70;99.90;;;;;;10363893;28;20037;-66
2024/01/24 00:07:19;;;;;;;3.78;2.17;;;9.80;99.90;;;;;;10364549;28;20050;-67
2024/01/24 00:12:20;;;;;;;3.60;1.70;;;9.80;99.90;;;;;;10361828;28;20021;-67
2024/01/24 00:17:20;;;;;;;2.50;1.65;;;9.90;99.90;;;;;;10374027;28;20394;-66
2024/01/24 00:22:21;;;;;;;2.25;1.42;;;9.80;99.90;;;;;;10362469;28;20127;-67
2024/01/24 00:27:21;;;;;;;1.80;1.50;;;9.90;99.90;;;;;;10364204;28;20108;-67
2024/01/24 00:32:22;;;;;;;1.50;1.40;;;9.90;99.90;;;;;;10358601;28;20486;-67
2024/01/24 00:37:23;;;;;;;1.88;1.60;;;9.90;99.90;;;;;;10371243;28;20471;-67
2024/01/24 00:42:23;;;;;;;1.60;1.50;;;10.00;99.90;;;;;;10361796;28;20022;-67
2024/01/24 00:47:24;;;;;;;2.67;1.48;;;10.00;99.90;;;;;;10359272;28;20091;-66
2024/01/24 00:52:25;;;;;;;2.30;1.40;;;10.00;99.90;;;;;;10375498;28;20121;-66
2024/01/24 00:57:26;;;;;;;3.08;1.23;;;10.00;99.90;;;;;;10369219;28;20017;-66
2024/01/24 01:02:26;;;;;;;2.97;1.40;;;10.00;99.90;;;;;;10365833;28;20029;-67
2024/01/24 01:07:27;;;;;;;1.83;1.42;;;10.10;99.90;;;;;;10367616;28;20273;-67
2024/01/24 01:12:28;;;;;;;2.13;1.40;;;10.10;99.90;;;;;;10363850;28;20037;-67
2024/01/24 01:17:30;;;;;;;2.58;1.00;;;10.10;99.90;;;;;;10370753;28;20030;-67
2024/01/24 01:22:30;;;;;;;3.05;1.02;;;10.10;99.90;;;;;;10373837;28;20048;-67
2024/01/24 01:27:31;;;;;;;2.45;1.00;;;10.10;99.90;;;;;;10376619;28;20052;-67
2024/01/24 01:32:31;;;;;;;1.30;0.93;;;10.20;99.90;;;;;;10376673;28;20017;-67
2024/01/24 01:37:32;;;;;;;1.67;1.10;;;10.10;99.90;;;;;;10368891;28;20018;-66
2024/01/24 01:42:33;;;;;;;1.83;0.90;;;10.20;99.90;;;;;;10374005;28;20018;-67
2024/01/24 01:47:33;;;;;;;2.42;1.00;;;10.20;99.90;;;;;;10376890;28;20494;-67
2024/01/24 01:52:34;;;;;;;1.70;0.90;;;10.20;99.90;;;;;;10382364;28;20526;-67
2024/01/24 01:57:35;;;;;;;0.95;0.80;;;10.20;99.90;;;;;;10369529;28;20018;-66
2024/01/24 02:02:36;;;;;;;1.35;0.85;;;10.20;99.90;;;;;;10372317;28;20041;-67
2024/01/24 02:07:37;;;;;;;1.02;0.70;;;10.30;99.90;;;;;;10377841;28;20025;-67
2024/01/24 02:12:38;;;;;;;1.08;0.88;;;10.30;99.90;;;;;;10373630;28;20077;-67
2024/01/24 02:17:38;;;;;;;1.50;0.90;;;10.30;99.90;;;;;;10368625;28;20029;-67
2024/01/24 02:22:39;;;;;;;1.67;0.90;;;10.30;99.90;;;;;;10377765;28;20018;-66
2024/01/24 02:27:39;;;;;;;1.25;0.70;;;10.30;99.90;;;;;;10376832;28;20022;-67
2024/01/24 02:32:40;;;;;;;1.42;0.85;;;10.30;99.90;;;;;;10376346;28;20117;-67
2024/01/24 02:37:41;;;;;;;2.15;0.85;;;10.30;99.90;;;;;;10372079;28;20040;-67
2024/01/24 02:42:41;;;;;;;1.45;0.70;;;10.30;99.90;;;;;;10366592;28;20028;-67
2024/01/24 02:47:42;;;;;;;1.88;0.80;;;10.30;99.90;;;;;;10372179;28;20029;-67
2024/01/24 02:52:43;;;;;;;2.10;0.73;;;10.30;99.90;;;;;;10372818;28;20045;-67
2024/01/24 02:57:47;;;;;;;3.65;0.75;;;10.30;99.90;;;;;;10367878;28;20641;-67
2024/01/24 03:02:47;;;;;;;1.30;0.80;;;10.30;99.90;;;;;;10365696;28;20030;-67
2024/01/24 03:07:48;;;;;;;2.33;0.68;;;10.30;99.90;;;;;;10376137;28;20382;-67
2024/01/24 03:12:49;;;;;;;1.50;0.50;;;10.30;99.90;;;;;;10373855;28;20038;-67
2024/01/24 03:17:49;;;;;;;2.13;0.70;;;10.30;99.90;;;;;;10361857;28;20018;-66
2024/01/24 03:22:50;;;;;;;1.92;0.70;;;10.30;99.90;;;;;;10362707;28;20037;-66
2024/01/24 03:27:50;;;;;;;1.63;0.82;;;10.30;99.90;;;;;;10375482;28;20025;-67
2024/01/24 03:32:51;;;;;;;1.95;0.80;;;10.30;99.90;;;;;;10363098;28;20022;-67
2024/01/24 03:37:51;;;;;;;2.00;1.10;;;10.30;99.90;;;;;;10360198;28;20030;-67
2024/01/24 03:42:52;;;;;;;6.22;0.68;;;10.30;99.90;;;;;;10360140;28;20026;-67
2024/01/24 03:47:53;;;;;;;4.88;1.50;;;10.30;99.90;;;;;;10358329;28;20248;-65
2024/01/24 03:52:53;;;;;;;3.63;0.98;;;10.30;99.90;;;;;;10372661;28;20018;-67
2024/01/24 03:57:54;;;;;;;2.95;1.05;;;10.30;99.90;;;;;;10361073;28;20034;-67
2024/01/24 04:02:54;;;;;;;2.70;0.90;;;10.30;99.90;;;;;;10371356;28;20120;-67
2024/01/24 04:07:55;;;;;;;2.40;0.60;;;10.30;99.90;;;;;;10365044;28;20053;-66
2024/01/24 04:12:55;;;;;;;4.05;1.08;;;10.30;99.90;;;;;;10356460;28;20030;-66
2024/01/24 04:17:56;;;;;;;4.38;1.10;;;10.30;99.90;;;;;;10350027;28;20034;-66
2024/01/24 04:22:58;;;;;;;3.63;1.08;;;10.30;99.90;;;;;;10361872;28;20529;-67
2024/01/24 04:27:58;;;;;;;4.85;0.65;;;10.30;99.90;;;;;;10353577;28;20029;-67
2024/01/24 04:32:59;;;;;;;4.75;1.08;;;10.30;99.90;;;;;;10349708;28;20036;-67
2024/01/24 04:37:59;;;;;;;6.20;1.17;;;10.30;99.90;;;;;;10351818;28;20084;-67
2024/01/24 04:43:00;;;;;;;3.78;1.05;;;10.30;99.90;;;;;;10358685;28;20049;-67
2024/01/24 04:48:00;;;;;;;4.72;1.25;;;10.30;99.90;;;;;;10353326;28;20037;-67
2024/01/24 04:53:01;;;;;;;4.45;1.25;;;10.30;99.90;;;;;;10354498;28;20210;-67
2024/01/24 04:58:02;;;;;;;5.13;0.88;;;10.30;99.90;;;;;;10353837;28;20152;-67
2024/01/24 05:03:03;;;;;;;3.15;0.82;;;10.30;99.90;;;;;;10357593;28;20029;-67
2024/01/24 05:08:04;;;;;;;6.97;1.02;;;10.20;99.90;;;;;;10364311;28;20037;-67
2024/01/24 05:13:04;;;;;;;4.47;1.30;;;10.30;99.90;;;;;;10351784;28;20029;-67
2024/01/24 05:18:05;;;;;;;8.43;1.27;;;10.30;99.90;;;;;;10353758;28;20130;-66
2024/01/24 05:23:07;;;;;;;5.30;1.40;;;10.20;99.90;;;;;;10357121;28;20017;-67
2024/01/24 05:28:08;;;;;;;9.75;1.20;;;10.30;99.90;;;;;;10354610;28;20151;-67
2024/01/24 05:33:10;;;;;;;11.60;1.33;;;10.30;99.90;;;;;;10356447;28;20702;-67
2024/01/24 05:38:11;;;;;;;8.93;1.73;;;10.30;99.90;;;;;;10351028;28;20109;-67
2024/01/24 05:43:12;;;;;;;5.32;1.38;;;10.30;99.90;;;;;;10351848;28;20026;-68
2024/01/24 05:48:14;;;;;;;6.80;1.73;;;10.30;99.90;;;;;;10360239;28;20504;-68
2024/01/24 05:53:14;;;;;;;12.13;2.42;;;10.20;99.90;;;;;;10360690;28;20522;-66
2024/01/24 05:58:15;;;;;;;10.85;2.00;;;10.20;99.90;;;;;;10354251;28;20030;-65
2024/01/24 06:03:15;;;;;;;8.88;2.08;;;10.20;99.90;;;;;;10355989;28;20030;-68
2024/01/24 06:08:16;;;;;;;9.98;1.80;;;10.20;99.90;;;;;;10358968;28;20305;-66
2024/01/24 06:13:17;;;;;;;16.17;1.83;;;10.20;99.90;;;;;;10363627;28;20029;-67
2024/01/24 06:18:18;;;;;;;11.70;2.33;;;10.20;99.90;;;;;;10365871;28;20026;-67
2024/01/24 06:23:18;;;;;;;7.35;2.00;;;10.20;99.90;;;;;;10374566;28;20076;-66
2024/01/24 06:28:19;;;;;;;9.40;1.80;;;10.20;99.90;;;;;;10364420;28;20026;-67
2024/01/24 06:33:19;;;;;;;9.07;1.55;;;10.20;99.90;;;;;;10362212;28;20110;-66
2024/01/24 06:38:20;;;;;;;11.57;2.38;;;10.20;99.90;;;;;;10362099;28;20048;-67
2024/01/24 06:43:20;;;;;;;14.50;2.53;;;10.20;99.90;;;;;;10358469;28;20024;-66
2024/01/24 06:48:21;;;;;;;8.02;1.92;;;10.20;99.90;;;;;;10365446;28;20390;-65
2024/01/24 06:53:22;;;;;;;13.63;1.90;;;10.20;99.90;;;;;;10361314;28;20042;-67
2024/01/24 06:58:22;;;;;;;13.32;2.45;;;10.10;99.90;;;;;;10363530;28;20014;-67
2024/01/24 07:03:23;;;;;;;9.45;2.55;;;10.10;99.90;;;;;;10348460;28;20026;-67
2024/01/24 07:08:23;;;;;;;10.25;1.92;;;10.10;99.90;;;;;;10356983;28;20057;-66
2024/01/24 07:13:24;;;;;;;12.65;2.67;;;10.10;99.90;;;;;;10363582;28;20120;-66
2024/01/24 07:18:25;;;;;;;15.68;2.22;;;10.10;99.90;;;;;;10361149;28;20024;-66
2024/01/24 07:23:25;;;;;;;15.05;2.28;;;10.10;99.90;;;;;;10365073;28;20474;-66
2024/01/24 07:28:29;;;;;;;9.68;1.92;;;10.10;99.90;;;;;;10362272;28;20029;-66
2024/01/24 07:33:29;;;;;;;19.40;2.60;;;10.10;99.90;;;;;;10360802;28;20243;-66
2024/01/24 07:38:30;;;;;;;11.13;2.33;;;10.10;99.90;;;;;;10363378;28;20029;-66
2024/01/24 07:43:32;;;;;;;12.63;2.38;;;10.10;99.90;;;;;;10360507;28;20029;-68
2024/01/24 07:48:33;;;;;;;14.38;2.80;;;10.10;99.90;;;;;;10354108;28;20479;-66
2024/01/24 07:53:33;;;;;;;13.77;3.22;;;10.10;99.90;;;;;;10374945;28;20047;-67
2024/01/24 07:58:34;;;;;;;11.75;2.80;;;10.10;99.90;;;;;;10366825;28;20034;-67
2024/01/24 08:03:35;;;;;;;15.15;2.47;;;10.10;99.90;;;;;;10366029;28;20022;-66
2024/01/24 08:08:35;;;;;;;8.88;2.70;;;10.10;99.90;;;;;;10365118;28;20018;-68
2024/01/24 08:13:36;;;;;;;18.45;3.25;;;10.10;99.90;;;;;;10364068;28;20029;-67
2024/01/24 08:18:36;;;;;;;16.48;3.00;;;10.10;99.90;;;;;;10358752;28;20320;-67
2024/01/24 08:23:37;;;;;;;13.98;2.15;;;10.80;99.90;;;;;;10359067;28;20064;-67
2024/01/24 08:28:37;;;;;;;10.68;2.17;;;10.10;99.90;;;;;;10352807;28;20038;-67
2024/01/24 08:33:38;;;;;;;15.80;2.63;;;10.10;99.90;;;;;;10358209;28;20093;-66
2024/01/24 08:38:39;;;;;;;22.40;3.05;;;10.10;99.90;;;;;;10361796;28;20038;-67
2024/01/24 08:43:39;;;;;;;11.13;2.53;;;10.10;99.90;;;;;;10358078;28;20030;-67
2024/01/24 08:48:40;;;;;;;10.35;2.30;;;10.10;99.90;;;;;;10359545;28;20655;-69
2024/01/24 08:53:40;;;;;;;13.48;3.40;;;10.10;99.90;;;;;;10359793;28;20037;-67
2024/01/24 08:58:42;;;;;;;19.10;3.72;;;10.10;99.90;;;;;;10353520;28;20653;-67
2024/01/24 09:03:43;;;;;;;16.70;2.88;;;10.10;99.90;;;;;;10359189;28;20072;-67
2024/01/24 09:08:44;;;;;;;22.40;3.00;;;10.10;99.90;;;;;;10357863;28;20763;-67
2024/01/24 09:13:47;;;;;;;13.73;2.42;;;10.10;99.90;;;;;;10356587;28;20041;-66
2024/01/24 09:18:47;;;;;;;13.48;2.65;;;10.10;99.90;;;;;;10356284;28;20097;-66
2024/01/24 09:23:49;;;;;;;14.32;2.65;;;10.10;99.90;;;;;;10356801;28;20038;-68
2024/01/24 09:28:50;;;;;;;12.00;2.63;;;10.20;99.90;;;;;;10350422;28;20022;-67
2024/01/24 09:33:50;;;;;;;17.25;3.53;;;10.20;99.90;;;;;;10353503;28;20429;-67
2024/01/24 09:38:51;;;;;;;11.75;2.55;;;10.20;99.90;;;;;;10357731;28;20045;-67
2024/01/24 09:44:02;;;;;;;11.98;2.78;;;10.20;99.90;;;;;;10356001;28;20045;-67
2024/01/24 09:49:06;;;;;;;16.30;2.72;;;10.20;99.90;;;;;;10367917;28;20041;-66
2024/01/24 09:54:07;;;;;;;14.88;3.10;;;10.20;99.90;;;;;;10363780;28;20551;-67
2024/01/24 09:59:08;;;;;;;12.95;2.50;;;10.20;99.90;;;;;;10364887;28;20026;-66
2024/01/24 10:04:14;;;;;;;10.77;2.55;;;10.30;99.90;;;;;;10364795;28;20107;-67
2024/01/24 10:09:14;;;;;;;9.60;1.92;;;10.30;99.90;;;;;;10371136;28;20120;-67
2024/01/24 10:14:15;;;;;;;11.43;2.47;;;10.40;99.90;;;;;;10372030;28;20087;-67
2024/01/24 10:19:17;;;;;;;12.80;2.75;;;10.40;99.90;;;;;;10364428;28;20120;-67
2024/01/24 10:24:19;;;;;;;13.73;3.00;;;10.50;99.90;;;;;;10362297;28;20503;-66
2024/01/24 10:29:19;;;;;;;17.40;3.08;;;10.50;99.90;;;;;;10361177;28;20022;-67
2024/01/24 10:34:21;;;;;;;10.07;1.73;;;10.60;99.90;;;;;;10369411;28;20470;-66
2024/01/24 10:39:25;;;;;;;11.35;2.63;;;10.60;99.90;;;;;;10364055;28;20025;-67
2024/01/24 10:44:27;;;;;;;11.52;2.85;;;10.70;99.90;;;;;;10362809;28;20037;-67
2024/01/24 10:49:29;;;;;;;11.23;2.50;;;10.70;99.90;;;;;;10359127;28;20493;-67
2024/01/24 10:54:33;;;;;;;11.13;2.08;;;10.80;99.90;;;;;;10368064;28;20026;-66
2024/01/24 10:59:38;;;;;;;11.75;2.65;;;10.80;99.90;;;;;;10367388;28;20030;-67
2024/01/24 11:04:40;;;;;;;11.30;2.45;;;10.80;99.90;;;;;;10367132;28;20141;-66
2024/01/24 11:09:53;;;;;;;13.13;2.85;;;10.90;99.90;;;;;;10363751;28;20076;-67
2024/01/24 11:15:08;;;;;;;10.27;2.00;;;10.90;99.90;;;;;;10365937;28;20110;-67
2024/01/24 11:20:10;;;;;;;13.02;2.40;;;10.90;99.90;;;;;;10355473;28;20454;-67
2024/01/24 11:25:11;;;;;;;14.10;2.42;;;11.00;99.90;;;;;;10351785;28;20213;-67
2024/01/24 11:30:12;;;;;;;12.50;2.70;;;11.00;99.90;;;;;;10369390;28;20100;-67
2024/01/24 11:35:32;;;;;;;13.25;2.08;;;11.00;99.90;;;;;;10368181;28;20233;-67
2024/01/24 11:40:36;;;;;;;12.48;2.38;;;11.10;99.90;;;;;;10361840;28;20056;-66
2024/01/24 11:45:39;;;;;;;11.13;2.30;;;11.10;99.90;;;;;;10368332;28;20022;-67
2024/01/24 11:50:40;;;;;;;9.52;1.95;;;11.10;99.90;;;;;;10361051;28;20029;-67
2024/01/24 11:56:09;;;;;;;12.82;2.30;;;11.10;99.90;;;;;;10359343;28;20052;-67
2024/01/24 12:01:11;;;;;;;12.70;2.05;;;11.10;99.90;;;;;;10363461;28;20104;-67
2024/01/24 12:06:12;;;;;;;6.70;1.90;;;11.10;99.90;;;;;;10361647;28;20018;-68
2024/01/24 12:11:12;;;;;;;11.13;2.42;;;11.10;99.90;;;;;;10361701;28;20037;-67
2024/01/24 12:16:19;;;;;;;10.25;1.85;;;11.10;99.90;;;;;;10361420;28;20456;-67
2024/01/24 12:21:21;;;;;;;9.98;2.25;;;11.10;99.90;;;;;;10363645;28;20030;-66
2024/01/24 12:26:21;;;;;;;11.13;2.30;;;11.10;99.90;;;;;;10364627;28;20108;-66
2024/01/24 12:31:28;;;;;;;10.90;2.80;;;11.10;99.90;;;;;;10365404;28;20045;-66
2024/01/24 12:36:28;;;;;;;8.85;2.00;;;11.00;99.90;;;;;;10366261;28;20029;-66
2024/01/24 12:41:30;;;;;;;11.35;2.05;;;11.10;99.90;;;;;;10366715;28;20228;-69
2024/01/24 12:46:31;;;;;;;11.95;1.88;;;11.00;99.90;;;;;;10366349;28;20493;-69
2024/01/24 12:51:32;;;;;;;19.77;3.38;;;11.10;99.90;;;;;;10360238;28;20042;-65
2024/01/24 12:56:33;;;;;;;9.80;2.20;;;11.10;99.90;;;;;;10365803;28;20038;-67
2024/01/24 13:01:33;;;;;;;13.77;2.60;;;11.00;99.90;;;;;;10364732;28;20022;-67
2024/01/24 13:06:36;;;;;;;16.42;3.05;;;11.00;99.90;;;;;;10362972;28;20402;-69
2024/01/24 13:11:37;;;;;;;13.10;2.80;;;11.00;99.90;;;;;;10361486;28;20458;-69
2024/01/24 13:16:37;;;;;;;17.55;2.80;;;11.00;99.90;;;;;;10360090;28;20127;-67
2024/01/24 13:21:38;;;;;;;9.38;2.17;;;11.00;99.90;;;;;;10362463;28;20278;-68
2024/01/24 13:26:39;;;;;;;11.32;2.10;;;11.00;99.90;;;;;;10372427;28;20100;-68
2024/01/24 13:31:41;;;;;;;10.73;2.13;;;11.00;99.90;;;;;;10367764;28;20043;-68
2024/01/24 13:36:44;;;;;;;10.85;2.03;;;10.90;99.90;;;;;;10368025;28;20093;-69
2024/01/24 13:41:44;;;;;;;14.85;2.35;;;10.90;99.90;;;;;;10368104;28;20037;-68
2024/01/24 13:46:46;;;;;;;14.98;2.42;;;10.90;99.90;;;;;;10374436;28;20034;-67
2024/01/24 13:51:47;;;;;;;8.48;1.70;;;11.00;99.90;;;;;;10366613;28;20397;-65
2024/01/24 13:56:47;;;;;;;13.85;2.30;;;10.90;99.90;;;;;;10363298;28;20039;-67
2024/01/24 14:01:48;;;;;;;13.23;2.10;;;10.90;99.90;;;;;;10367472;28;20022;-67
2024/01/24 14:06:49;;;;;;;10.82;2.00;;;10.90;99.90;;;;;;10381396;28;20021;-66
2024/01/24 14:11:52;;;;;;;10.38;1.98;;;10.90;99.90;;;;;;10370708;28;20025;-66
2024/01/24 14:16:52;;;;;;;8.00;2.08;;;10.80;99.90;;;;;;10366451;28;20033;-67
2024/01/24 14:21:53;;;;;;;7.32;2.17;;;10.80;99.90;;;;;;10371436;28;20238;-67
2024/01/24 14:26:54;;;;;;;8.20;2.00;;;10.80;99.90;;;;;;10365626;28;20030;-67
2024/01/24 14:31:54;;;;;;;12.48;2.15;;;10.80;99.90;;;;;;10371496;28;20038;-66
2024/01/24 14:36:55;;;;;;;6.45;2.20;;;10.80;99.90;;;;;;10368224;28;20121;-67
2024/01/24 14:41:56;;;;;;;7.93;1.90;;;10.80;99.90;;;;;;10370103;28;20040;-67
2024/01/24 14:46:56;;;;;;;10.23;1.70;;;10.70;99.90;;;;;;10364072;28;20457;-66
2024/01/24 14:51:57;;;;;;;9.57;2.10;;;10.70;99.90;;;;;;10371050;28;20172;-66
2024/01/24 14:56:58;;;;;;;11.07;2.38;;;10.70;99.90;;;;;;10364658;28;20037;-66
2024/01/24 15:01:58;;;;;;;9.27;1.98;;;10.70;99.90;;;;;;10364756;28;20037;-69
2024/01/24 15:06:59;;;;;;;8.48;2.10;;;10.70;99.90;;;;;;10379114;28;20045;-67
2024/01/24 15:11:59;;;;;;;10.18;1.88;;;10.70;99.90;;;;;;10371706;28;20045;-68
2024/01/24 15:17:00;;;;;;;10.05;1.80;;;10.70;99.90;;;;;;10361815;28;20252;-68
2024/01/24 15:22:00;;;;;;;8.98;2.13;;;10.70;99.90;;;;;;10360177;28;20034;-70
2024/01/24 15:27:01;;;;;;;10.55;2.17;;;10.70;99.90;;;;;;10366960;28;20037;-66
2024/01/24 15:32:02;;;;;;;8.38;1.80;;;10.70;99.90;;;;;;10365423;28;20038;-67
2024/01/24 15:37:03;;;;;;;6.00;2.10;;;10.60;99.90;;;;;;10385287;28;20034;-67
2024/01/24 15:42:08;;;;;;;8.57;2.28;;;10.60;99.90;;;;;;10365407;28;20025;-66
2024/01/24 15:47:09;;;;;;;7.90;1.73;;;10.60;99.90;;;;;;10355037;28;20497;-67
2024/01/24 15:52:10;;;;;;;10.68;1.77;;;10.60;99.90;;;;;;10376320;28;20029;-67
2024/01/24 15:57:11;;;;;;;14.45;2.40;;;10.50;99.90;;;;;;10363765;28;20017;-66
2024/01/24 16:02:11;;;;;;;8.65;2.20;;;10.50;99.90;;;;;;10362518;28;20037;-68
2024/01/24 16:07:14;;;;;;;8.30;1.45;;;10.50;99.90;;;;;;10371204;28;20490;-66
2024/01/24 16:12:15;;;;;;;8.15;2.20;;;10.50;99.90;;;;;;10359815;28;20037;-67
2024/01/24 16:17:16;;;;;;;12.70;2.38;;;10.50;99.90;;;;;;10373837;28;20374;-66
2024/01/24 16:22:17;;;;;;;9.25;1.63;;;10.50;99.90;;;;;;10374457;28;20046;-66
2024/01/24 16:27:17;;;;;;;10.52;1.95;;;10.50;99.90;;;;;;10359475;28;20061;-67
2024/01/24 16:32:18;;;;;;;13.45;2.03;;;10.50;99.90;;;;;;10366108;28;20037;-67
2024/01/24 16:37:19;;;;;;;11.88;2.03;;;10.40;99.90;;;;;;10364781;28;20113;-67
2024/01/24 16:42:19;;;;;;;9.02;1.77;;;10.40;99.90;;;;;;10367576;28;20413;-67
2024/01/24 16:47:22;;;;;;;6.10;1.80;;;10.40;99.90;;;;;;10374699;28;20168;-71
2024/01/24 16:52:23;;;;;;;7.95;2.20;;;10.40;99.90;;;;;;10357976;28;20037;-68
2024/01/24 16:57:24;;;;;;;7.85;2.25;;;10.40;99.90;;;;;;10363330;28;20363;-68
2024/01/24 17:02:25;;;;;;;11.05;2.45;;;10.50;99.90;;;;;;10357227;28;20037;-68
2024/01/24 17:07:25;;;;;;;9.77;2.22;;;10.50;99.90;;;;;;10363854;28;20069;-68
2024/01/24 17:12:27;;;;;;;8.10;2.38;;;10.30;99.90;;;;;;10352654;28;20113;-68
2024/01/24 17:17:28;;;;;;;10.15;1.83;;;10.30;99.90;;;;;;10365038;28;20120;-67
2024/01/24 17:22:28;;;;;;;14.65;2.33;;;10.40;99.90;;;;;;10355082;28;20086;-65
2024/01/24 17:27:29;;;;;;;10.70;2.45;;;10.40;99.90;;;;;;10350180;28;20553;-67
2024/01/24 17:32:29;;;;;;;14.05;2.38;;;10.50;99.90;;;;;;10355998;28;20537;-65
2024/01/24 17:37:30;;;;;;;13.07;2.33;;;10.50;99.90;;;;;;10361945;28;20181;-66
2024/01/24 17:42:30;;;;;;;7.07;2.10;;;10.40;99.90;;;;;;10364440;28;20394;-66
2024/01/24 17:47:31;;;;;;;7.57;2.10;;;10.40;99.90;;;;;;10366162;28;20017;-67
2024/01/24 17:52:32;;;;;;;12.15;2.22;;;10.40;99.90;;;;;;10360210;28;20030;-67
2024/01/24 17:57:32;;;;;;;10.30;2.40;;;10.30;99.90;;;;;;10360028;28;20396;-66
2024/01/24 18:02:33;;;;;;;9.23;2.08;;;10.30;99.90;;;;;;10358590;28;20072;-66
2024/01/24 18:07:34;;;;;;;7.90;2.10;;;10.30;99.90;;;;;;10359266;28;20063;-66
2024/01/24 18:12:34;;;;;;;16.17;2.72;;;10.30;99.90;;;;;;10364460;28;20188;-66
2024/01/24 18:17:37;;;;;;;9.88;1.90;;;10.40;99.90;;;;;;10371233;28;20040;-68
2024/01/24 18:22:37;;;;;;;10.88;2.45;;;9.90;99.90;;;;;;10372001;28;20028;-69
2024/01/24 18:27:38;;;;;;;9.95;2.85;;;10.30;99.90;;;;;;10364560;28;20025;-66
2024/01/24 18:32:38;;;;;;;8.18;2.40;;;10.50;99.90;;;;;;10366614;28;20394;-66
2024/01/24 18:37:39;;;;;;;13.40;3.08;;;10.50;99.90;;;;;;10359773;28;20397;-67
2024/01/24 18:42:39;;;;;;;10.55;2.75;;;10.40;99.90;;;;;;10354904;28;20029;-66
2024/01/24 18:47:40;;;;;;;11.68;2.47;;;10.40;99.90;;;;;;10360600;28;20674;-67
2024/01/24 18:52:43;;;;;;;12.90;2.80;;;10.30;99.90;;;;;;10361011;28;20401;-67
2024/01/24 18:57:43;;;;;;;8.93;2.10;;;10.30;99.90;;;;;;10374705;28;20405;-67
2024/01/24 19:02:44;;;;;;;10.23;2.03;;;10.30;99.90;;;;;;10348296;28;20239;-66
2024/01/24 19:07:45;;;;;;;7.97;1.95;;;10.30;99.90;;;;;;10379820;28;20033;-66
2024/01/24 19:12:45;;;;;;;9.43;2.95;;;10.20;99.90;;;;;;10369660;28;20108;-67
2024/01/24 19:17:46;;;;;;;10.50;2.28;;;10.20;99.90;;;;;;10368015;28;20442;-66
2024/01/24 19:22:47;;;;;;;8.80;2.28;;;10.20;99.90;;;;;;10362923;28;20505;-66
2024/01/24 19:27:47;;;;;;;8.43;2.15;;;10.20;99.90;;;;;;10371630;28;20026;-66
2024/01/24 19:32:48;;;;;;;11.30;2.30;;;10.20;99.90;;;;;;10367942;28;20493;-67
2024/01/24 19:37:49;;;;;;;5.32;1.80;;;11.00;99.90;;;;;;10365915;28;20030;-67
2024/01/24 19:42:51;;;;;;;10.55;1.98;;;10.20;99.90;;;;;;10365831;28;20072;-66
2024/01/24 19:47:54;;;;;;;6.43;1.83;;;10.10;99.90;;;;;;10365721;28;20046;-65
2024/01/24 19:52:55;;;;;;;6.43;1.73;;;10.10;99.90;;;;;;10364991;28;20129;-66
2024/01/24 19:57:57;;;;;;;9.15;2.30;;;10.10;99.90;;;;;;10357992;28;20042;-66
2024/01/24 20:02:58;;;;;;;9.40;2.05;;;10.10;99.90;;;;;;10361937;28;20030;-67
2024/01/24 20:07:58;;;;;;;10.30;2.25;;;10.10;99.90;;;;;;10362668;28;20038;-66
2024/01/24 20:12:59;;;;;;;6.55;1.63;;;10.10;99.90;;;;;;10362646;28;20057;-67
2024/01/24 20:18:00;;;;;;;5.63;1.70;;;10.10;99.90;;;;;;10364476;28;20029;-67
2024/01/24 20:23:00;;;;;;;8.00;1.58;;;10.10;99.90;;;;;;10370209;28;20029;-67
2024/01/24 20:28:01;;;;;;;9.60;2.00;;;10.10;99.90;;;;;;10364977;28;20409;-66
2024/01/24 20:33:02;;;;;;;4.93;1.85;;;10.10;99.90;;;;;;10360199;28;20109;-66
2024/01/24 20:38:02;;;;;;;8.05;1.77;;;10.10;99.90;;;;;;10367015;28;20032;-67
2024/01/24 20:43:03;;;;;;;6.22;2.03;;;10.00;99.90;;;;;;10365873;28;20328;-66
2024/01/24 20:48:04;;;;;;;7.10;1.70;;;10.00;99.90;;;;;;10362719;28;20053;-67
2024/01/24 20:53:05;;;;;;;10.57;2.08;;;10.00;99.90;;;;;;10360812;28;20310;-67
2024/01/24 20:58:05;;;;;;;4.60;2.00;;;10.00;99.90;;;;;;10361641;28;20030;-67
2024/01/24 21:03:06;;;;;;;7.82;1.90;;;10.00;99.90;;;;;;10358953;28;20030;-66
2024/01/24 21:08:07;;;;;;;4.93;1.75;;;10.60;99.90;;;;;;10357313;28;20014;-67
2024/01/24 21:13:08;;;;;;;8.30;1.52;;;10.00;99.90;;;;;;10355202;28;20429;-67
2024/01/24 21:18:08;;;;;;;5.72;1.63;;;10.00;99.90;;;;;;10359585;28;20038;-66
2024/01/24 21:23:09;;;;;;;10.30;1.65;;;10.00;99.90;;;;;;10356570;28;20120;-67
2024/01/24 21:28:10;;;;;;;6.65;1.75;;;10.00;99.90;;;;;;10353690;28;20037;-67
2024/01/24 21:33:10;;;;;;;8.13;2.30;;;10.00;99.90;;;;;;10349365;28;20498;-66
2024/01/24 21:38:12;;;;;;;9.20;2.08;;;9.90;99.90;;;;;;10351784;28;20033;-66
2024/01/24 21:43:13;;;;;;;4.50;1.33;;;10.00;99.90;;;;;;10361034;28;20018;-66
2024/01/24 21:48:15;;;;;;;7.18;1.60;;;9.90;99.90;;;;;;10367513;28;21163;-66
2024/01/24 21:53:15;;;;;;;7.25;1.92;;;9.90;99.90;;;;;;10362291;28;20419;-67
2024/01/24 21:58:16;;;;;;;5.38;1.30;;;9.90;99.90;;;;;;10364774;28;20030;-67
2024/01/24 22:03:16;;;;;;;7.38;1.50;;;9.90;99.90;;;;;;10361209;28;20030;-67
2024/01/24 22:08:18;;;;;;;5.90;1.65;;;9.90;99.90;;;;;;10368145;28;20022;-66
2024/01/24 22:13:20;;;;;;;5.38;1.42;;;9.90;99.90;;;;;;10365312;28;20553;-66
2024/01/24 22:18:21;;;;;;;6.15;1.63;;;9.90;99.90;;;;;;10365617;28;20018;-67
2024/01/24 22:23:21;;;;;;;4.43;1.50;;;9.90;99.90;;;;;;10367553;28;20502;-67
2024/01/24 22:28:22;;;;;;;4.47;1.52;;;9.90;99.90;;;;;;10357067;28;20026;-67
2024/01/24 22:33:23;;;;;;;8.05;1.40;;;9.90;99.90;;;;;;10366870;28;20033;-67
2024/01/24 22:38:24;;;;;;;3.72;1.27;;;9.90;99.90;;;;;;10371627;28;20026;-67
2024/01/24 22:43:24;;;;;;;8.45;1.83;;;9.80;99.90;;;;;;10363372;28;20055;-67
2024/01/24 22:48:25;;;;;;;9.00;1.77;;;9.80;99.90;;;;;;10366643;28;20380;-66
2024/01/24 22:53:26;;;;;;;8.00;1.73;;;9.80;99.90;;;;;;10367754;28;20131;-67
2024/01/24 22:58:26;;;;;;;4.93;1.58;;;9.80;99.90;;;;;;10359378;28;20034;-67
2024/01/24 23:03:28;;;;;;;6.63;1.48;;;9.80;99.90;;;;;;10357321;28;20026;-67
2024/01/24 23:08:28;;;;;;;4.45;1.63;;;9.80;99.90;;;;;;10371063;28;20591;-67
2024/01/24 23:13:29;;;;;;;4.78;1.83;;;9.80;99.90;;;;;;10362812;28;20135;-66
2024/01/24 23:18:29;;;;;;;6.55;1.35;;;9.80;99.90;;;;;;10363119;28;20026;-66
2024/01/24 23:23:30;;;;;;;4.80;1.52;;;9.80;99.90;;;;;;10364477;28;20026;-67
2024/01/24 23:28:30;;;;;;;4.38;1.50;;;9.80;99.90;;;;;;10364088;28;20018;-67
2024/01/24 23:33:33;;;;;;;4.13;1.20;;;9.80;99.90;;;;;;10363075;28;20391;-67
2024/01/24 23:38:33;;;;;;;8.88;1.40;;;9.80;99.90;;;;;;10360671;28;20040;-67
2024/01/24 23:43:35;;;;;;;5.10;1.75;;;9.80;99.90;;;;;;10369748;28;20014;-66
2024/01/24 23:48:35;;;;;;;5.65;1.20;;;9.80;99.90;;;;;;10353394;28;20080;-66
2024/01/24 23:53:36;;;;;;;3.47;1.17;;;9.80;99.90;;;;;;10374152;28;20064;-67
2024/01/24 23:58:37;;;;;;;7.50;1.50;;;9.80;99.90;;;;;;10361239;28;20664;-67
